Time;durP1;ratioP1;P1;durP2;ratioP2;P2;SDS_P1;SDS_P2;PMS_P1;PMS_P2;Temp;Humidity;BMP_temperature;BMP_pressure;BME280_temperature;BME280_humidity;BME280_pressure;Samples;Min_cycle;Max_cycle;Signal;HPM_P1;HPM_P2
2022/09/05 00:02:32;;;;;;;1.33;1.33;;;23.80;64.50;;;;;;4985977;28;43816;-72
2022/09/05 00:05:11;;;;;;;1.10;1.10;;;24.00;64.10;;;;;;4986177;28;43416;-72
2022/09/05 00:07:41;;;;;;;1.23;1.23;;;24.10;63.90;;;;;;4967921;28;45426;-72
2022/09/05 00:10:34;;;;;;;1.30;1.30;;;24.10;63.80;;;;;;4967729;28;44562;-72
2022/09/05 00:13:23;;;;;;;1.20;1.20;;;24.00;63.60;;;;;;4986036;28;43381;-71
2022/09/05 00:16:02;;;;;;;1.40;1.40;;;23.90;63.90;;;;;;4968424;28;43437;-72
2022/09/05 00:18:57;;;;;;;1.30;1.30;;;23.90;64.40;;;;;;4968174;28;46332;-73
2022/09/05 00:21:58;;;;;;;1.13;1.13;;;23.90;64.30;;;;;;4979014;28;43584;-71
2022/09/05 00:24:51;;;;;;;1.20;1.20;;;23.80;64.20;;;;;;4988652;28;43332;-71
2022/09/05 00:27:45;;;;;;;1.37;1.37;;;23.70;64.60;;;;;;5002630;28;43474;-71
2022/09/05 00:30:14;;;;;;;1.20;1.20;;;23.80;64.80;;;;;;4987357;28;45847;-72
2022/09/05 00:33:23;;;;;;;1.30;1.30;;;23.70;64.70;;;;;;5004972;28;43362;-72
2022/09/05 00:35:59;;;;;;;1.33;1.23;;;23.80;64.50;;;;;;4987933;28;43481;-72
2022/09/05 00:38:28;;;;;;;1.20;1.20;;;23.70;64.90;;;;;;5005679;28;44029;-70
2022/09/05 00:41:04;;;;;;;1.20;1.20;;;23.70;64.90;;;;;;5003976;28;43838;-73
2022/09/05 00:43:35;;;;;;;1.20;1.20;;;23.80;64.50;;;;;;5008422;28;44072;-71
2022/09/05 00:46:04;;;;;;;1.23;1.23;;;23.90;64.20;;;;;;4990476;28;43405;-73
2022/09/05 00:48:35;;;;;;;1.23;1.23;;;24.00;63.80;;;;;;4991224;28;43526;-72
2022/09/05 00:51:10;;;;;;;1.30;1.30;;;24.10;63.80;;;;;;5001494;28;43968;-72
2022/09/05 00:53:43;;;;;;;1.27;1.27;;;24.00;63.70;;;;;;5003046;28;43475;-70
2022/09/05 00:56:36;;;;;;;1.30;1.30;;;24.00;63.90;;;;;;5008706;28;43434;-73
2022/09/05 00:59:37;;;;;;;1.20;1.20;;;23.90;64.30;;;;;;5006784;28;43914;-72
2022/09/05 01:02:09;;;;;;;1.20;1.20;;;23.90;64.30;;;;;;5006120;28;43786;-71
2022/09/05 01:04:40;;;;;;;1.20;1.20;;;23.80;64.10;;;;;;5008142;28;43409;-72
2022/09/05 01:07:18;;;;;;;1.20;1.20;;;23.80;64.30;;;;;;5008392;28;43794;-73
2022/09/05 01:09:51;;;;;;;1.20;1.20;;;23.70;64.70;;;;;;5008805;28;43450;-74
2022/09/05 01:12:36;;;;;;;1.10;1.10;;;23.70;64.60;;;;;;5008020;28;43936;-72
2022/09/05 01:15:14;;;;;;;1.30;1.30;;;23.70;64.40;;;;;;4989759;28;46299;-72
2022/09/05 01:18:00;;;;;;;1.30;1.30;;;23.70;64.70;;;;;;5008471;28;43421;-73
2022/09/05 01:20:33;;;;;;;1.30;1.30;;;23.70;64.90;;;;;;5008687;28;43441;-72
2022/09/05 01:23:21;;;;;;;1.30;1.30;;;23.80;64.60;;;;;;4989346;28;45793;-74
2022/09/05 01:25:58;;;;;;;1.30;1.30;;;23.90;64.10;;;;;;4996342;28;43521;-73
2022/09/05 01:28:28;;;;;;;1.30;1.30;;;24.10;63.60;;;;;;4988069;28;43888;-72
2022/09/05 01:31:22;;;;;;;1.13;1.13;;;24.10;63.40;;;;;;4988091;28;43504;-72
2022/09/05 01:33:54;;;;;;;1.30;1.30;;;24.10;63.40;;;;;;4982022;28;43882;-72
2022/09/05 01:36:38;;;;;;;1.27;1.27;;;24.00;63.50;;;;;;4969987;28;45160;-72
2022/09/05 01:39:12;;;;;;;1.30;1.30;;;23.90;64.00;;;;;;4987916;28;43325;-72
2022/09/05 01:42:06;;;;;;;1.30;1.30;;;23.90;64.10;;;;;;4988380;28;43478;-73
2022/09/05 01:44:53;;;;;;;1.20;1.20;;;23.90;64.00;;;;;;4987832;28;44120;-73
2022/09/05 01:47:45;;;;;;;1.30;1.30;;;23.80;64.00;;;;;;4987930;28;43445;-72
2022/09/05 01:50:26;;;;;;;1.23;1.23;;;23.70;64.60;;;;;;4984061;28;43540;-72
2022/09/05 01:53:02;;;;;;;1.20;1.20;;;23.70;64.50;;;;;;4982858;28;43434;-73
2022/09/05 01:55:40;;;;;;;1.23;1.23;;;23.70;64.30;;;;;;4985861;28;45608;-72
2022/09/05 01:58:33;;;;;;;1.40;1.40;;;23.70;64.40;;;;;;4987634;28;43386;-72
2022/09/05 02:01:05;;;;;;;1.40;1.40;;;23.70;64.80;;;;;;4981886;28;43800;-75
2022/09/05 02:04:07;;;;;;;1.60;1.50;;;23.80;64.60;;;;;;4988125;28;43409;-71
2022/09/05 02:06:37;;;;;;;1.20;1.20;;;23.90;64.80;;;;;;4987870;28;43861;-73
2022/09/05 02:09:10;;;;;;;1.20;1.20;;;24.00;63.70;;;;;;4987187;28;43397;-73
2022/09/05 02:11:45;;;;;;;1.30;1.30;;;24.10;63.70;;;;;;4981698;28;44018;-73
2022/09/05 02:14:23;;;;;;;1.37;1.37;;;24.00;63.60;;;;;;4982322;28;43376;-73
2022/09/05 02:17:17;;;;;;;1.20;1.20;;;24.00;63.70;;;;;;4987333;28;43642;-73
2022/09/05 02:20:11;;;;;;;1.40;1.40;;;23.90;64.20;;;;;;4987278;28;43555;-73
2022/09/05 02:22:43;;;;;;;1.30;1.30;;;23.90;64.30;;;;;;4987571;28;43419;-72
2022/09/05 02:25:15;;;;;;;1.20;1.20;;;23.80;64.10;;;;;;4987634;28;43509;-71
2022/09/05 02:28:05;;;;;;;1.37;1.37;;;23.80;64.20;;;;;;4987396;28;43885;-73
2022/09/05 02:30:34;;;;;;;1.30;1.30;;;23.70;64.60;;;;;;4981194;28;43385;-72
2022/09/05 02:33:09;;;;;;;1.20;1.20;;;23.70;64.50;;;;;;4980926;28;44016;-73
2022/09/05 02:35:41;;;;;;;1.23;1.23;;;23.70;64.40;;;;;;4969649;28;43586;-71
2022/09/05 02:38:12;;;;;;;1.40;1.40;;;23.70;64.50;;;;;;4987200;28;43889;-72
2022/09/05 02:41:04;;;;;;;1.40;1.40;;;23.70;65.00;;;;;;4987370;28;43978;-73
2022/09/05 02:43:55;;;;;;;1.20;1.20;;;23.70;64.80;;;;;;4987470;28;43439;-72
2022/09/05 02:46:46;;;;;;;1.23;1.23;;;23.70;64.60;;;;;;4969952;28;43752;-73
2022/09/05 02:49:24;;;;;;;1.37;1.37;;;23.60;64.60;;;;;;4985301;28;44778;-71
2022/09/05 02:52:14;;;;;;;1.10;1.10;;;23.60;65.00;;;;;;4981993;28;43439;-74
2022/09/05 02:55:02;;;;;;;1.67;1.30;;;23.70;64.60;;;;;;4987191;28;43463;-73
2022/09/05 02:57:52;;;;;;;1.20;1.20;;;23.90;64.30;;;;;;4987449;28;43412;-72
2022/09/05 03:00:38;;;;;;;1.30;1.30;;;24.00;63.70;;;;;;4987105;28;43883;-73
2022/09/05 03:03:19;;;;;;;1.17;1.17;;;24.10;63.50;;;;;;4969020;28;45500;-72
2022/09/05 03:05:52;;;;;;;1.33;1.33;;;24.10;63.50;;;;;;4968788;28;43816;-73
2022/09/05 03:08:34;;;;;;;1.40;1.40;;;24.00;63.50;;;;;;4987579;28;43726;-73
2022/09/05 03:11:34;;;;;;;1.40;1.40;;;23.90;64.00;;;;;;4986766;28;43924;-74
2022/09/05 03:14:38;;;;;;;1.10;1.10;;;23.90;64.00;;;;;;4986652;28;43431;-72
2022/09/05 03:17:39;;;;;;;1.30;1.30;;;23.90;64.10;;;;;;4936314;28;44024;-72
2022/09/05 03:20:37;;;;;;;1.30;1.30;;;23.80;64.10;;;;;;4969025;28;43921;-71
2022/09/05 03:23:43;;;;;;;1.20;1.20;;;23.70;64.50;;;;;;4986086;28;43604;-73
2022/09/05 03:26:44;;;;;;;1.20;1.20;;;23.70;64.50;;;;;;4934994;28;43734;-72
2022/09/05 03:29:37;;;;;;;1.33;1.33;;;23.70;64.30;;;;;;5002065;28;43345;-72
2022/09/05 03:32:30;;;;;;;1.23;1.23;;;23.70;64.80;;;;;;5006270;28;43901;-74
2022/09/05 03:35:32;;;;;;;1.47;1.37;;;23.70;64.70;;;;;;5006212;28;44050;-71
2022/09/05 03:38:21;;;;;;;1.30;1.30;;;23.80;64.40;;;;;;5014729;28;44463;-71
2022/09/05 03:41:05;;;;;;;1.37;1.37;;;23.90;63.80;;;;;;5006394;28;43328;-72
2022/09/05 03:44:02;;;;;;;1.50;1.50;;;24.00;64.30;;;;;;5006754;28;43367;-71
2022/09/05 03:46:55;;;;;;;1.30;1.30;;;24.00;63.50;;;;;;4990410;28;43866;-73
2022/09/05 03:49:35;;;;;;;1.37;1.37;;;23.90;63.50;;;;;;5005673;28;43310;-72
2022/09/05 03:52:27;;;;;;;1.30;1.30;;;23.90;64.00;;;;;;5004067;28;43419;-73
2022/09/05 03:55:42;;;;;;;1.27;1.23;;;23.90;64.10;;;;;;5006291;28;43419;-73
2022/09/05 03:58:48;;;;;;;1.10;1.10;;;23.80;63.90;;;;;;5005916;28;43863;-73
2022/09/05 04:01:28;;;;;;;1.20;1.20;;;23.80;64.10;;;;;;5005688;28;43894;-72
2022/09/05 04:04:23;;;;;;;1.23;1.23;;;23.70;64.30;;;;;;5005615;28;43757;-72
2022/09/05 04:07:16;;;;;;;1.30;1.30;;;23.80;64.10;;;;;;5003457;28;43449;-73
2022/09/05 04:10:06;;;;;;;1.40;1.40;;;24.00;63.80;;;;;;5003810;28;45708;-73
2022/09/05 04:12:35;;;;;;;1.40;1.40;;;24.10;63.50;;;;;;4999508;28;43402;-73
2022/09/05 04:15:07;;;;;;;1.40;1.40;;;24.10;63.40;;;;;;5014716;28;43387;-73
2022/09/05 04:17:37;;;;;;;1.27;1.27;;;24.00;63.40;;;;;;5008013;28;43393;-72
2022/09/05 04:20:10;;;;;;;2.50;1.63;;;24.00;63.60;;;;;;5009056;28;43875;-73
2022/09/05 04:23:00;;;;;;;3.93;1.60;;;23.90;63.60;;;;;;5009139;28;44111;-73
2022/09/05 04:25:34;;;;;;;1.40;1.40;;;23.90;62.90;;;;;;5007189;28;43875;-72
2022/09/05 04:28:10;;;;;;;1.43;1.43;;;23.80;64.10;;;;;;5024338;28;44110;-72
2022/09/05 04:30:43;;;;;;;3.40;1.50;;;23.70;63.50;;;;;;5001189;28;46001;-73
2022/09/05 04:33:18;;;;;;;1.30;1.30;;;23.70;63.80;;;;;;5003012;28;43990;-73
2022/09/05 04:35:53;;;;;;;1.50;1.50;;;23.70;63.80;;;;;;5024246;28;44045;-73
2022/09/05 04:38:35;;;;;;;1.50;1.40;;;23.70;63.80;;;;;;5024066;28;43556;-72
2022/09/05 04:41:04;;;;;;;2.00;1.40;;;23.70;64.00;;;;;;5023487;28;46211;-72
2022/09/05 04:43:34;;;;;;;1.80;1.40;;;23.60;64.10;;;;;;5007582;28;45044;-72
2022/09/05 04:46:11;;;;;;;1.53;1.53;;;23.70;64.20;;;;;;5008560;28;43878;-73
2022/09/05 04:48:47;;;;;;;1.30;1.30;;;23.70;63.80;;;;;;5009139;28;43340;-73
2022/09/05 04:51:50;;;;;;;1.30;1.30;;;23.90;63.50;;;;;;5002521;28;43837;-72
2022/09/05 04:54:30;;;;;;;1.43;1.43;;;24.00;62.30;;;;;;5007623;28;45162;-72
2022/09/05 04:57:01;;;;;;;1.80;1.50;;;24.00;62.20;;;;;;5018355;28;43454;-74
2022/09/05 04:59:46;;;;;;;1.40;1.40;;;24.00;62.60;;;;;;5009959;28;43487;-72
2022/09/05 05:02:37;;;;;;;1.40;1.40;;;23.90;62.80;;;;;;5007544;28;45888;-72
2022/09/05 05:05:26;;;;;;;1.40;1.40;;;23.80;63.80;;;;;;5024018;28;44985;-71
2022/09/05 05:08:16;;;;;;;1.40;1.40;;;23.80;63.20;;;;;;5007365;28;43380;-73
2022/09/05 05:11:07;;;;;;;1.30;1.30;;;23.80;63.40;;;;;;5007602;28;43601;-72
2022/09/05 05:13:57;;;;;;;1.77;1.77;;;23.70;63.60;;;;;;5008925;28;44341;-72
2022/09/05 05:16:47;;;;;;;1.73;1.70;;;23.70;63.60;;;;;;5009197;28;43404;-73
2022/09/05 05:19:39;;;;;;;1.37;1.37;;;23.70;63.70;;;;;;5024096;28;43807;-73
2022/09/05 05:22:13;;;;;;;1.30;1.30;;;23.70;63.80;;;;;;5008768;28;43458;-73
2022/09/05 05:24:43;;;;;;;1.30;1.30;;;23.60;63.80;;;;;;5008834;28;43901;-73
2022/09/05 05:27:12;;;;;;;1.53;1.43;;;23.60;63.60;;;;;;5008757;28;43426;-73
2022/09/05 05:29:43;;;;;;;1.37;1.37;;;23.70;63.80;;;;;;4990040;28;43494;-72
2022/09/05 05:32:18;;;;;;;1.50;1.50;;;23.60;63.70;;;;;;5009289;28;43448;-72
2022/09/05 05:35:09;;;;;;;1.60;1.60;;;23.60;63.70;;;;;;4998816;28;43815;-71
2022/09/05 05:37:40;;;;;;;1.43;1.43;;;23.60;64.30;;;;;;5008743;28;43356;-71
2022/09/05 05:40:10;;;;;;;1.40;1.40;;;23.70;63.20;;;;;;5008760;28;43956;-71
2022/09/05 05:42:39;;;;;;;1.63;1.63;;;23.80;62.60;;;;;;5007818;28;43565;-72
2022/09/05 05:45:15;;;;;;;1.70;1.70;;;23.90;62.20;;;;;;5008131;28;43935;-73
2022/09/05 05:47:43;;;;;;;1.60;1.50;;;24.00;61.90;;;;;;4990329;28;44967;-71
2022/09/05 05:50:18;;;;;;;1.40;1.40;;;24.00;62.50;;;;;;4990520;28;43465;-73
2022/09/05 05:53:13;;;;;;;1.40;1.40;;;24.00;62.20;;;;;;5009178;28;43326;-73
2022/09/05 05:56:11;;;;;;;1.70;1.70;;;23.90;62.00;;;;;;5007591;28;43848;-73
2022/09/05 05:58:50;;;;;;;1.40;1.40;;;23.90;62.10;;;;;;5000549;28;44726;-73
2022/09/05 06:01:48;;;;;;;1.80;1.80;;;23.80;62.50;;;;;;5006708;28;43447;-73
2022/09/05 06:05:00;;;;;;;1.60;1.60;;;23.70;62.70;;;;;;5008172;28;43409;-72
2022/09/05 06:07:34;;;;;;;1.73;1.73;;;23.70;62.60;;;;;;5008360;28;43767;-72
2022/09/05 06:11:07;;;;;;;1.80;1.80;;;23.70;62.60;;;;;;5006388;28;44638;-73
2022/09/05 06:14:37;;;;;;;2.87;1.70;;;23.70;63.00;;;;;;5003984;28;43760;-72
2022/09/05 06:17:55;;;;;;;1.73;1.73;;;23.60;62.90;;;;;;4984245;28;43659;-72
2022/09/05 06:20:36;;;;;;;1.90;1.63;;;23.70;62.80;;;;;;5002770;28;46213;-71
2022/09/05 06:23:57;;;;;;;2.63;1.73;;;23.70;62.20;;;;;;5002522;28;44001;-73
2022/09/05 06:27:01;;;;;;;1.70;1.70;;;23.90;61.80;;;;;;5005736;28;43867;-73
2022/09/05 06:29:35;;;;;;;1.67;1.67;;;23.90;61.60;;;;;;5008544;28;43365;-72
2022/09/05 06:32:13;;;;;;;1.73;1.73;;;23.90;61.90;;;;;;5007498;28;43713;-72
2022/09/05 06:34:58;;;;;;;2.20;2.10;;;23.90;62.30;;;;;;5008755;28;43432;-73
2022/09/05 06:37:33;;;;;;;2.00;1.90;;;23.80;62.10;;;;;;5007777;28;43381;-73
2022/09/05 06:40:08;;;;;;;1.90;1.80;;;23.80;62.10;;;;;;4989773;28;43568;-72
2022/09/05 06:42:44;;;;;;;1.80;1.80;;;23.70;62.40;;;;;;5007812;28;44214;-72
2022/09/05 06:45:21;;;;;;;2.00;1.90;;;23.70;62.70;;;;;;5007245;28;43991;-72
2022/09/05 06:47:58;;;;;;;1.73;1.70;;;23.70;62.60;;;;;;5001778;28;43357;-72
2022/09/05 06:50:30;;;;;;;1.70;1.70;;;23.60;62.40;;;;;;4999856;28;43930;-74
2022/09/05 06:53:59;;;;;;;1.77;1.77;;;23.60;62.70;;;;;;5007025;28;43840;-72
2022/09/05 06:56:38;;;;;;;1.90;1.90;;;23.60;62.90;;;;;;4984884;28;44743;-72
2022/09/05 06:59:26;;;;;;;1.97;1.97;;;23.60;62.70;;;;;;4989230;28;43362;-72
2022/09/05 07:01:56;;;;;;;1.87;1.80;;;23.60;62.60;;;;;;4996576;28;43721;-73
2022/09/05 07:04:33;;;;;;;1.80;1.80;;;23.70;62.30;;;;;;5001214;28;44128;-74
2022/09/05 07:07:23;;;;;;;2.00;2.00;;;23.90;62.00;;;;;;4988632;28;43533;-73
2022/09/05 07:09:59;;;;;;;1.70;1.70;;;24.00;61.80;;;;;;5000441;28;43459;-72
2022/09/05 07:12:29;;;;;;;1.97;1.97;;;24.00;61.80;;;;;;5007723;28;43408;-73
2022/09/05 07:15:07;;;;;;;1.70;1.70;;;23.90;62.00;;;;;;5007319;28;43674;-71
2022/09/05 07:17:49;;;;;;;1.90;1.90;;;23.80;62.10;;;;;;5005355;28;44953;-73
2022/09/05 07:20:42;;;;;;;1.80;1.80;;;23.80;62.30;;;;;;4994392;28;43854;-72
2022/09/05 07:23:42;;;;;;;1.90;1.90;;;23.70;62.40;;;;;;5007356;28;43441;-71
2022/09/05 07:26:31;;;;;;;2.07;1.97;;;23.70;62.70;;;;;;5006554;28;43913;-72
2022/09/05 07:29:23;;;;;;;1.73;1.73;;;23.60;62.70;;;;;;5002873;28;43370;-72
2022/09/05 07:31:55;;;;;;;2.13;1.97;;;23.60;62.70;;;;;;4989259;28;43404;-72
2022/09/05 07:34:24;;;;;;;2.10;2.10;;;23.60;63.60;;;;;;5006654;28;43432;-71
2022/09/05 07:36:54;;;;;;;2.00;2.00;;;23.60;63.00;;;;;;4989007;28;46339;-74
2022/09/05 07:39:44;;;;;;;1.90;1.80;;;23.60;63.10;;;;;;4995903;28;45134;-73
2022/09/05 07:42:15;;;;;;;1.90;1.90;;;23.60;62.90;;;;;;5000664;28;43394;-73
2022/09/05 07:44:46;;;;;;;1.80;1.80;;;23.70;62.70;;;;;;5007384;28;43772;-72
2022/09/05 07:47:16;;;;;;;1.80;1.80;;;23.90;62.40;;;;;;5005186;28;45920;-71
2022/09/05 07:49:44;;;;;;;1.90;1.90;;;24.00;62.00;;;;;;5006869;28;43487;-72
2022/09/05 07:52:33;;;;;;;3.13;2.30;;;24.00;61.80;;;;;;5006170;28;43357;-72
2022/09/05 07:55:24;;;;;;;2.13;1.93;;;24.00;62.10;;;;;;5006698;28;43505;-73
2022/09/05 07:58:13;;;;;;;3.83;1.87;;;23.90;62.50;;;;;;5006758;28;44074;-72
2022/09/05 08:00:43;;;;;;;4.27;2.50;;;23.80;63.10;;;;;;5006938;28;43923;-73
2022/09/05 08:03:12;;;;;;;2.33;2.20;;;23.80;63.20;;;;;;5006698;28;43397;-73
2022/09/05 08:05:42;;;;;;;2.70;2.50;;;23.70;63.00;;;;;;5007143;28;43828;-71
2022/09/05 08:08:11;;;;;;;2.40;2.30;;;23.70;63.40;;;;;;5006469;28;43602;-73
2022/09/05 08:10:43;;;;;;;2.23;2.17;;;23.70;64.20;;;;;;5006325;28;43971;-73
2022/09/05 08:13:46;;;;;;;2.83;2.30;;;23.70;64.20;;;;;;5006814;28;43430;-73
2022/09/05 08:16:16;;;;;;;2.57;2.37;;;23.60;63.70;;;;;;5006599;28;43410;-72
2022/09/05 08:18:48;;;;;;;2.60;2.40;;;23.60;63.90;;;;;;5006307;28;43677;-73
2022/09/05 08:21:20;;;;;;;1.93;1.87;;;23.60;64.80;;;;;;5005967;28;43895;-72
2022/09/05 08:23:56;;;;;;;2.20;2.10;;;23.60;64.80;;;;;;5005988;28;43444;-73
2022/09/05 08:26:31;;;;;;;2.70;2.50;;;23.70;64.50;;;;;;4988338;28;44080;-72
2022/09/05 08:29:03;;;;;;;2.50;2.37;;;23.90;64.10;;;;;;4999365;28;43681;-72
2022/09/05 08:31:36;;;;;;;2.83;2.63;;;24.00;64.00;;;;;;4998435;28;44871;-73
2022/09/05 08:34:11;;;;;;;2.20;2.10;;;24.00;63.90;;;;;;5006020;28;43394;-72
2022/09/05 08:36:40;;;;;;;3.17;2.20;;;23.90;63.70;;;;;;5006417;28;43366;-72
2022/09/05 08:39:10;;;;;;;2.17;2.07;;;23.80;64.10;;;;;;5005788;28;43914;-72
2022/09/05 08:41:56;;;;;;;3.70;2.40;;;23.80;64.60;;;;;;5005982;28;43362;-72
2022/09/05 08:44:35;;;;;;;2.40;2.30;;;23.70;64.30;;;;;;4988261;28;43451;-71
2022/09/05 08:47:27;;;;;;;2.50;2.37;;;23.70;64.20;;;;;;5006083;28;43453;-73
2022/09/05 08:50:31;;;;;;;3.03;2.50;;;23.70;64.80;;;;;;4987461;28;45922;-71
2022/09/05 08:53:06;;;;;;;2.73;2.50;;;23.60;65.90;;;;;;5005846;28;43743;-72
2022/09/05 08:55:57;;;;;;;3.27;2.73;;;23.70;64.90;;;;;;5006103;28;43436;-73
2022/09/05 08:58:52;;;;;;;2.80;2.60;;;23.90;64.60;;;;;;5005663;28;43729;-72
2022/09/05 09:01:44;;;;;;;4.57;2.77;;;24.00;64.30;;;;;;5004593;28;44587;-71
2022/09/05 09:04:38;;;;;;;2.10;2.00;;;24.00;64.20;;;;;;5003955;28;43360;-72
2022/09/05 09:07:28;;;;;;;2.83;2.50;;;23.90;64.00;;;;;;5009223;28;43338;-72
2022/09/05 09:10:30;;;;;;;2.93;2.60;;;23.80;64.70;;;;;;5009613;28;43477;-73
2022/09/05 09:13:11;;;;;;;3.87;2.67;;;23.80;64.80;;;;;;4991119;28;46155;-72
2022/09/05 09:15:40;;;;;;;2.40;2.30;;;23.70;64.50;;;;;;5009073;28;43331;-71
2022/09/05 09:18:12;;;;;;;6.77;2.97;;;23.70;64.60;;;;;;5007452;28;44015;-72
2022/09/05 09:20:48;;;;;;;3.93;3.03;;;23.70;65.10;;;;;;5009489;28;43421;-71
2022/09/05 09:23:24;;;;;;;3.00;2.80;;;23.70;65.10;;;;;;4995636;28;43923;-73
2022/09/05 09:26:12;;;;;;;2.80;2.60;;;23.60;64.80;;;;;;5004665;28;43430;-73
2022/09/05 09:28:45;;;;;;;2.90;2.53;;;23.60;65.50;;;;;;5009306;28;43434;-71
2022/09/05 09:31:38;;;;;;;3.63;2.60;;;23.60;65.40;;;;;;4991157;28;43596;-73
2022/09/05 09:34:52;;;;;;;4.37;2.70;;;23.60;65.60;;;;;;4985476;28;43845;-71
2022/09/05 09:37:52;;;;;;;3.70;2.50;;;23.70;65.30;;;;;;4912157;28;44815;-72
2022/09/05 09:40:38;;;;;;;2.73;2.50;;;23.90;64.70;;;;;;4988009;28;43366;-71
2022/09/05 09:43:16;;;;;;;2.60;2.40;;;24.00;64.50;;;;;;4991124;28;43526;-72
2022/09/05 09:46:03;;;;;;;3.00;2.80;;;24.00;64.30;;;;;;5008707;28;43739;-71
2022/09/05 09:48:58;;;;;;;2.30;2.20;;;23.90;64.30;;;;;;4990553;28;44996;-72
2022/09/05 09:51:45;;;;;;;2.47;2.27;;;23.80;64.90;;;;;;5001123;28;43343;-72
2022/09/05 09:54:32;;;;;;;2.50;2.30;;;23.80;64.90;;;;;;5008611;28;43564;-71
2022/09/05 09:57:36;;;;;;;2.57;2.37;;;23.70;64.70;;;;;;5001926;28;43852;-73
2022/09/05 10:00:10;;;;;;;2.60;2.40;;;23.70;64.80;;;;;;5008015;28;44026;-73
2022/09/05 10:03:02;;;;;;;2.73;2.53;;;23.70;65.40;;;;;;5005192;28;43894;-71
2022/09/05 10:06:24;;;;;;;2.60;2.40;;;23.70;65.30;;;;;;5008713;28;43351;-71
2022/09/05 10:09:16;;;;;;;3.03;2.43;;;23.60;65.00;;;;;;5007600;28;43923;-71
2022/09/05 10:12:37;;;;;;;2.53;2.43;;;23.60;65.50;;;;;;5002604;28;44798;-74
2022/09/05 10:15:14;;;;;;;2.30;2.20;;;23.60;65.70;;;;;;5002361;28;43410;-72
2022/09/05 10:18:23;;;;;;;2.77;2.20;;;23.80;65.60;;;;;;5008761;28;43966;-71
2022/09/05 10:21:31;;;;;;;2.40;2.20;;;23.90;65.00;;;;;;5008081;28;44004;-72
2022/09/05 10:24:30;;;;;;;2.43;2.33;;;24.00;64.70;;;;;;4987934;28;43454;-72
2022/09/05 10:27:19;;;;;;;3.03;2.37;;;24.00;64.50;;;;;;5007973;28;43330;-72
2022/09/05 10:29:55;;;;;;;2.73;2.53;;;23.90;64.60;;;;;;5008386;28;43907;-71
2022/09/05 10:32:25;;;;;;;2.40;2.30;;;23.80;65.10;;;;;;4988855;28;45759;-72
2022/09/05 10:35:19;;;;;;;2.57;2.37;;;23.80;65.00;;;;;;5004031;28;43437;-71
2022/09/05 10:37:54;;;;;;;2.70;2.60;;;23.80;65.00;;;;;;5007737;28;43389;-70
2022/09/05 10:40:23;;;;;;;2.40;2.30;;;23.70;65.10;;;;;;5007985;28;43708;-71
2022/09/05 10:42:52;;;;;;;3.07;2.30;;;23.70;66.60;;;;;;5007901;28;43921;-71
2022/09/05 10:45:31;;;;;;;2.50;2.40;;;23.70;65.70;;;;;;5007284;28;43459;-70
2022/09/05 10:48:11;;;;;;;2.30;2.20;;;23.80;65.50;;;;;;5007608;28;43319;-73
2022/09/05 10:50:42;;;;;;;2.47;2.37;;;23.90;65.10;;;;;;5002818;28;43792;-71
2022/09/05 10:53:21;;;;;;;2.40;2.20;;;24.00;65.00;;;;;;5007727;28;43617;-72
2022/09/05 10:56:04;;;;;;;2.27;2.17;;;23.90;64.70;;;;;;4989728;28;44582;-70
2022/09/05 10:58:47;;;;;;;2.43;2.33;;;23.90;64.80;;;;;;5007540;28;43962;-72
2022/09/05 11:01:38;;;;;;;2.33;2.27;;;23.90;65.60;;;;;;5007732;28;43402;-72
2022/09/05 11:04:38;;;;;;;2.40;2.30;;;23.80;65.50;;;;;;4989134;28;46003;-71
2022/09/05 11:07:18;;;;;;;2.23;2.13;;;23.70;65.20;;;;;;5003364;28;43921;-72
2022/09/05 11:10:04;;;;;;;2.50;2.40;;;23.70;65.40;;;;;;5007307;28;43677;-71
2022/09/05 11:13:06;;;;;;;2.50;2.30;;;23.70;66.00;;;;;;5007868;28;43371;-72
2022/09/05 11:15:42;;;;;;;2.00;1.90;;;23.70;65.70;;;;;;4989883;28;43875;-72
2022/09/05 11:18:54;;;;;;;2.30;2.20;;;23.70;65.50;;;;;;5007447;28;43420;-71
2022/09/05 11:21:29;;;;;;;2.40;2.27;;;23.70;65.80;;;;;;5007075;28;43441;-72
2022/09/05 11:23:59;;;;;;;2.40;2.30;;;23.70;66.40;;;;;;4989677;28;44038;-71
2022/09/05 11:26:31;;;;;;;2.17;2.00;;;23.70;66.10;;;;;;5003920;28;46120;-71
2022/09/05 11:29:02;;;;;;;2.00;2.00;;;23.80;65.90;;;;;;5006865;28;43453;-72
2022/09/05 11:31:41;;;;;;;1.80;1.80;;;24.00;65.50;;;;;;5007333;28;43914;-71
2022/09/05 11:34:53;;;;;;;2.13;2.03;;;24.00;65.20;;;;;;5003905;28;43450;-72
2022/09/05 11:38:10;;;;;;;2.37;2.27;;;24.00;65.00;;;;;;5007183;28;44110;-71
2022/09/05 11:41:28;;;;;;;3.07;2.13;;;23.90;65.40;;;;;;4989052;28;43531;-71
2022/09/05 11:44:10;;;;;;;2.00;1.90;;;23.90;65.70;;;;;;4981450;28;44031;-72
2022/09/05 11:47:21;;;;;;;2.10;2.00;;;23.90;65.50;;;;;;4989584;28;43627;-71
2022/09/05 11:50:40;;;;;;;2.43;2.20;;;23.80;65.50;;;;;;5007088;28;44860;-72
2022/09/05 11:53:31;;;;;;;2.27;2.10;;;23.70;65.50;;;;;;4995129;28;43442;-74
2022/09/05 11:56:28;;;;;;;1.73;1.70;;;23.70;65.50;;;;;;4994830;28;43527;-71
2022/09/05 11:59:30;;;;;;;2.03;1.93;;;23.70;65.50;;;;;;4972035;28;43544;-72
2022/09/05 12:02:15;;;;;;;2.40;2.20;;;23.70;66.10;;;;;;4970110;28;46306;-71
2022/09/05 12:05:19;;;;;;;1.97;1.97;;;23.70;66.40;;;;;;5006084;28;43393;-75
2022/09/05 12:08:08;;;;;;;2.13;2.03;;;23.80;66.90;;;;;;5002692;28;43389;-72
2022/09/05 12:10:47;;;;;;;2.30;1.97;;;23.90;65.70;;;;;;5007132;28;43432;-72
2022/09/05 12:13:30;;;;;;;1.83;1.80;;;24.10;65.50;;;;;;5006293;28;43611;-73
2022/09/05 12:16:00;;;;;;;2.10;1.90;;;24.10;65.20;;;;;;4998349;28;44562;-72
2022/09/05 12:18:41;;;;;;;2.10;2.00;;;24.00;65.10;;;;;;4983427;28;43373;-73
2022/09/05 12:21:21;;;;;;;2.10;2.00;;;24.00;65.60;;;;;;5007171;28;43910;-72
2022/09/05 12:23:51;;;;;;;1.80;1.80;;;23.90;65.70;;;;;;4988425;28;46343;-71
2022/09/05 12:26:42;;;;;;;2.00;1.90;;;23.90;65.60;;;;;;5006166;28;43424;-71
2022/09/05 12:29:33;;;;;;;1.90;1.83;;;23.90;65.50;;;;;;5005197;28;43792;-72
2022/09/05 12:32:19;;;;;;;4.10;2.00;;;23.80;66.10;;;;;;4988853;28;43394;-73
2022/09/05 12:35:07;;;;;;;2.17;1.97;;;23.80;66.10;;;;;;4988130;28;45853;-73
2022/09/05 12:38:01;;;;;;;1.77;1.77;;;23.80;65.80;;;;;;5007060;28;43558;-71
2022/09/05 12:40:52;;;;;;;2.30;2.10;;;23.80;65.80;;;;;;5004682;28;43381;-72
2022/09/05 12:43:44;;;;;;;2.20;2.10;;;23.70;66.50;;;;;;5008928;28;43485;-71
2022/09/05 12:46:35;;;;;;;2.00;1.90;;;23.80;66.40;;;;;;4990870;28;46089;-72
2022/09/05 12:49:06;;;;;;;2.00;2.00;;;23.90;66.20;;;;;;5009730;28;44013;-75
2022/09/05 12:51:36;;;;;;;2.10;1.97;;;24.00;65.80;;;;;;5009862;28;43911;-71
2022/09/05 12:54:26;;;;;;;1.80;1.80;;;24.00;65.60;;;;;;5010325;28;43816;-71
2022/09/05 12:57:05;;;;;;;2.10;1.87;;;24.00;65.40;;;;;;5009152;28;43600;-74
2022/09/05 12:59:57;;;;;;;1.73;1.73;;;24.00;65.40;;;;;;5009522;28;43370;-71
2022/09/05 13:02:49;;;;;;;2.07;2.00;;;23.90;65.90;;;;;;4991987;28;43911;-74
2022/09/05 13:05:45;;;;;;;2.00;2.00;;;23.90;65.90;;;;;;5008856;28;43540;-71
2022/09/05 13:08:20;;;;;;;1.70;1.70;;;23.90;65.80;;;;;;5009658;28;43692;-70
2022/09/05 13:10:53;;;;;;;1.80;1.80;;;23.90;65.90;;;;;;5009692;28;43405;-72
2022/09/05 13:13:46;;;;;;;1.93;1.87;;;23.80;66.50;;;;;;4991673;28;43489;-70
2022/09/05 13:16:38;;;;;;;2.10;2.00;;;23.80;66.40;;;;;;5010246;28;43697;-71
2022/09/05 13:19:07;;;;;;;1.80;1.80;;;23.90;66.20;;;;;;4990309;28;45675;-72
2022/09/05 13:21:36;;;;;;;2.00;1.90;;;24.00;65.80;;;;;;5008888;28;43401;-73
2022/09/05 13:24:08;;;;;;;1.67;1.67;;;24.10;65.50;;;;;;4991072;28;43401;-73
2022/09/05 13:26:38;;;;;;;1.60;1.60;;;24.10;65.50;;;;;;4991285;28;43474;-70
2022/09/05 13:29:11;;;;;;;2.00;1.90;;;24.00;65.40;;;;;;5008652;28;43938;-72
2022/09/05 13:32:02;;;;;;;1.73;1.73;;;23.90;65.80;;;;;;5002938;28;43438;-72
2022/09/05 13:34:54;;;;;;;1.83;1.83;;;23.90;66.00;;;;;;4991198;28;43410;-73
2022/09/05 13:37:44;;;;;;;1.70;1.70;;;23.90;65.90;;;;;;5009367;28;43441;-72
2022/09/05 13:40:34;;;;;;;1.63;1.63;;;23.80;65.80;;;;;;5008898;28;43848;-71
2022/09/05 13:43:06;;;;;;;1.80;1.70;;;23.80;66.60;;;;;;5008788;28;43414;-74
2022/09/05 13:45:36;;;;;;;1.90;1.90;;;23.80;66.40;;;;;;4991072;28;43421;-73
2022/09/05 13:48:26;;;;;;;1.50;1.50;;;23.80;66.20;;;;;;5009174;28;43923;-72
2022/09/05 13:50:58;;;;;;;1.40;1.40;;;23.80;66.10;;;;;;5007436;28;43733;-71
2022/09/05 13:53:29;;;;;;;1.70;1.70;;;23.70;67.40;;;;;;5008386;28;43365;-71
2022/09/05 13:56:22;;;;;;;1.60;1.60;;;23.70;66.70;;;;;;5008829;28;43434;-72
2022/09/05 13:58:52;;;;;;;2.00;1.93;;;23.90;66.60;;;;;;5003021;28;43350;-73
2022/09/05 14:01:51;;;;;;;1.90;1.90;;;24.00;66.10;;;;;;5008245;28;43683;-72
2022/09/05 14:04:54;;;;;;;1.70;1.70;;;24.10;65.80;;;;;;5008541;28;44033;-71
2022/09/05 14:08:25;;;;;;;1.50;1.50;;;24.10;65.60;;;;;;5008961;28;43406;-72
2022/09/05 14:11:07;;;;;;;1.90;1.90;;;24.00;65.60;;;;;;4989038;28;43380;-71
2022/09/05 14:13:46;;;;;;;1.70;1.70;;;23.90;66.30;;;;;;5001869;28;44677;-72
2022/09/05 14:16:16;;;;;;;1.60;1.60;;;23.90;66.00;;;;;;5008278;28;43362;-72
2022/09/05 14:21:32;;;;;;;1.50;1.50;;;23.90;65.90;;;;;;4989779;28;44061;-73